sensor_id;sensor_type;location;lat;lon;timestamp;temperature;humidity
71760;HTU21D;59919;48.112;16.280;2023-02-04T00:01:27;18.82;50.93
71760;HTU21D;59919;48.112;16.280;2023-02-04T00:03:58;18.78;51.12
71760;HTU21D;59919;48.112;16.280;2023-02-04T00:06:32;18.76;50.85
71760;HTU21D;59919;48.112;16.280;2023-02-04T00:09:03;18.79;50.50
71760;HTU21D;59919;48.112;16.280;2023-02-04T00:11:34;18.78;50.83
71760;HTU21D;59919;48.112;16.280;2023-02-04T00:14:08;18.74;50.97
71760;HTU21D;59919;48.112;16.280;2023-02-04T00:16:39;18.74;50.95
71760;HTU21D;59919;48.112;16.280;2023-02-04T00:19:10;18.72;50.67
71760;HTU21D;59919;48.112;16.280;2023-02-04T00:21:41;18.73;50.89
71760;HTU21D;59919;48.112;16.280;2023-02-04T00:24:11;18.72;50.79
71760;HTU21D;59919;48.112;16.280;2023-02-04T00:26:42;18.72;51.00
71760;HTU21D;59919;48.112;16.280;2023-02-04T00:29:14;18.72;51.18
71760;HTU21D;59919;48.112;16.280;2023-02-04T00:31:45;18.73;50.98
71760;HTU21D;59919;48.112;16.280;2023-02-04T00:34:18;18.72;50.97
71760;HTU21D;59919;48.112;16.280;2023-02-04T00:36:51;18.71;50.90
71760;HTU21D;59919;48.112;16.280;2023-02-04T00:39:22;18.69;50.82
71760;HTU21D;59919;48.112;16.280;2023-02-04T00:41:56;18.70;50.78
71760;HTU21D;59919;48.112;16.280;2023-02-04T00:44:28;18.70;50.89
71760;HTU21D;59919;48.112;16.280;2023-02-04T00:47:02;18.71;50.75
71760;HTU21D;59919;48.112;16.280;2023-02-04T00:49:33;18.68;50.64
71760;HTU21D;59919;48.112;16.280;2023-02-04T00:52:05;18.71;50.89
71760;HTU21D;59919;48.112;16.280;2023-02-04T00:54:39;18.71;50.93
71760;HTU21D;59919;48.112;16.280;2023-02-04T00:57:13;18.71;50.65
71760;HTU21D;59919;48.112;16.280;2023-02-04T00:59:44;18.71;50.61
71760;HTU21D;59919;48.112;16.280;2023-02-04T01:02:17;18.73;50.76
71760;HTU21D;59919;48.112;16.280;2023-02-04T01:04:48;18.68;50.87
71760;HTU21D;59919;48.112;16.280;2023-02-04T01:07:19;18.70;50.80
71760;HTU21D;59919;48.112;16.280;2023-02-04T01:09:53;18.67;50.89
71760;HTU21D;59919;48.112;16.280;2023-02-04T01:12:26;18.67;50.92
71760;HTU21D;59919;48.112;16.280;2023-02-04T01:14:59;18.68;50.98
71760;HTU21D;59919;48.112;16.280;2023-02-04T01:17:30;18.69;50.78
71760;HTU21D;59919;48.112;16.280;2023-02-04T01:20:01;18.67;50.98
71760;HTU21D;59919;48.112;16.280;2023-02-04T01:22:35;18.66;50.85
71760;HTU21D;59919;48.112;16.280;2023-02-04T01:25:09;18.66;50.76
71760;HTU21D;59919;48.112;16.280;2023-02-04T01:27:40;18.68;50.67
71760;HTU21D;59919;48.112;16.280;2023-02-04T01:30:13;18.69;50.40
71760;HTU21D;59919;48.112;16.280;2023-02-04T01:32:44;18.66;50.82
71760;HTU21D;59919;48.112;16.280;2023-02-04T01:35:16;18.66;50.73
71760;HTU21D;59919;48.112;16.280;2023-02-04T01:37:47;18.68;50.81
71760;HTU21D;59919;48.112;16.280;2023-02-04T01:40:18;18.70;50.24
71760;HTU21D;59919;48.112;16.280;2023-02-04T01:42:50;18.66;50.71
71760;HTU21D;59919;48.112;16.280;2023-02-04T01:45:21;18.68;50.66
71760;HTU21D;59919;48.112;16.280;2023-02-04T01:47:52;18.66;50.95
71760;HTU21D;59919;48.112;16.280;2023-02-04T01:50:26;18.61;50.86
71760;HTU21D;59919;48.112;16.280;2023-02-04T01:52:58;18.62;50.88
71760;HTU21D;59919;48.112;16.280;2023-02-04T01:55:31;18.64;50.95
71760;HTU21D;59919;48.112;16.280;2023-02-04T01:58:03;18.64;50.52
71760;HTU21D;59919;48.112;16.280;2023-02-04T02:00:34;18.64;50.85
71760;HTU21D;59919;48.112;16.280;2023-02-04T02:03:06;18.69;50.37
71760;HTU21D;59919;48.112;16.280;2023-02-04T02:08:14;18.68;50.50
71760;HTU21D;59919;48.112;16.280;2023-02-04T02:10:47;18.67;50.43
71760;HTU21D;59919;48.112;16.280;2023-02-04T02:13:22;18.71;50.75
71760;HTU21D;59919;48.112;16.280;2023-02-04T02:15:53;18.68;51.01
71760;HTU21D;59919;48.112;16.280;2023-02-04T02:18:25;18.73;50.69
71760;HTU21D;59919;48.112;16.280;2023-02-04T02:21:03;18.71;50.63
71760;HTU21D;59919;48.112;16.280;2023-02-04T02:23:54;18.73;50.53
71760;HTU21D;59919;48.112;16.280;2023-02-04T02:26:30;18.77;50.68
71760;HTU21D;59919;48.112;16.280;2023-02-04T02:29:02;18.73;50.79
71760;HTU21D;59919;48.112;16.280;2023-02-04T02:31:33;18.78;50.69
71760;HTU21D;59919;48.112;16.280;2023-02-04T02:34:04;18.79;50.47
71760;HTU21D;59919;48.112;16.280;2023-02-04T02:36:40;18.80;50.62
71760;HTU21D;59919;48.112;16.280;2023-02-04T02:39:12;18.87;50.38
71760;HTU21D;59919;48.112;16.280;2023-02-04T02:41:43;18.82;50.36
71760;HTU21D;59919;48.112;16.280;2023-02-04T02:44:15;18.82;50.67
71760;HTU21D;59919;48.112;16.280;2023-02-04T02:46:47;18.79;50.43
71760;HTU21D;59919;48.112;16.280;2023-02-04T02:49:19;18.78;50.62
71760;HTU21D;59919;48.112;16.280;2023-02-04T02:51:50;18.78;50.50
71760;HTU21D;59919;48.112;16.280;2023-02-04T02:54:26;18.83;50.59
71760;HTU21D;59919;48.112;16.280;2023-02-04T02:56:58;18.85;50.40
71760;HTU21D;59919;48.112;16.280;2023-02-04T02:59:29;18.79;50.63
71760;HTU21D;59919;48.112;16.280;2023-02-04T03:02:03;18.82;50.40
71760;HTU21D;59919;48.112;16.280;2023-02-04T03:04:40;18.78;50.49
71760;HTU21D;59919;48.112;16.280;2023-02-04T03:07:13;18.85;50.14
71760;HTU21D;59919;48.112;16.280;2023-02-04T03:09:46;18.77;50.76
71760;HTU21D;59919;48.112;16.280;2023-02-04T03:12:18;18.78;50.47
71760;HTU21D;59919;48.112;16.280;2023-02-04T03:14:49;18.76;50.56
71760;HTU21D;59919;48.112;16.280;2023-02-04T03:17:24;18.78;50.49
71760;HTU21D;59919;48.112;16.280;2023-02-04T03:19:55;18.74;50.60
71760;HTU21D;59919;48.112;16.280;2023-02-04T03:22:26;18.78;50.12
71760;HTU21D;59919;48.112;16.280;2023-02-04T03:24:57;18.74;50.54
71760;HTU21D;59919;48.112;16.280;2023-02-04T03:27:28;18.77;50.67
71760;HTU21D;59919;48.112;16.280;2023-02-04T03:30:00;18.76;50.35
71760;HTU21D;59919;48.112;16.280;2023-02-04T03:32:33;18.74;50.14
71760;HTU21D;59919;48.112;16.280;2023-02-04T03:35:07;18.74;50.34
71760;HTU21D;59919;48.112;16.280;2023-02-04T03:37:38;18.73;50.33
71760;HTU21D;59919;48.112;16.280;2023-02-04T03:40:17;18.73;50.22
71760;HTU21D;59919;48.112;16.280;2023-02-04T03:42:49;18.76;50.32
71760;HTU21D;59919;48.112;16.280;2023-02-04T03:45:23;18.70;50.35
71760;HTU21D;59919;48.112;16.280;2023-02-04T03:47:54;18.66;50.52
71760;HTU21D;59919;48.112;16.280;2023-02-04T03:50:34;18.67;50.46
71760;HTU21D;59919;48.112;16.280;2023-02-04T03:53:24;18.67;50.50
71760;HTU21D;59919;48.112;16.280;2023-02-04T03:55:59;18.64;50.75
71760;HTU21D;59919;48.112;16.280;2023-02-04T03:58:30;18.64;50.66
71760;HTU21D;59919;48.112;16.280;2023-02-04T04:01:01;18.63;50.66
71760;HTU21D;59919;48.112;16.280;2023-02-04T04:03:35;18.63;50.43
71760;HTU21D;59919;48.112;16.280;2023-02-04T04:06:06;18.61;50.77
71760;HTU21D;59919;48.112;16.280;2023-02-04T04:08:39;18.63;50.79
71760;HTU21D;59919;48.112;16.280;2023-02-04T04:11:10;18.61;50.79
71760;HTU21D;59919;48.112;16.280;2023-02-04T04:13:42;18.61;50.58
71760;HTU21D;59919;48.112;16.280;2023-02-04T04:16:12;18.62;50.56
71760;HTU21D;59919;48.112;16.280;2023-02-04T04:18:43;18.63;50.55
71760;HTU21D;59919;48.112;16.280;2023-02-04T04:21:14;18.63;50.55
71760;HTU21D;59919;48.112;16.280;2023-02-04T04:23:48;18.61;50.34
71760;HTU21D;59919;48.112;16.280;2023-02-04T04:26:19;18.59;50.92
71760;HTU21D;59919;48.112;16.280;2023-02-04T04:28:50;18.56;50.70
71760;HTU21D;59919;48.112;16.280;2023-02-04T04:31:23;18.59;50.72
71760;HTU21D;59919;48.112;16.280;2023-02-04T04:33:54;18.55;50.92
71760;HTU21D;59919;48.112;16.280;2023-02-04T04:36:28;18.55;50.93
71760;HTU21D;59919;48.112;16.280;2023-02-04T04:39:02;18.53;51.06
71760;HTU21D;59919;48.112;16.280;2023-02-04T04:41:34;18.54;50.78
71760;HTU21D;59919;48.112;16.280;2023-02-04T04:44:05;18.54;50.66
71760;HTU21D;59919;48.112;16.280;2023-02-04T04:46:36;18.56;50.85
71760;HTU21D;59919;48.112;16.280;2023-02-04T04:49:07;18.55;50.66
71760;HTU21D;59919;48.112;16.280;2023-02-04T04:51:38;18.56;50.72
71760;HTU21D;59919;48.112;16.280;2023-02-04T04:54:12;18.56;50.72
71760;HTU21D;59919;48.112;16.280;2023-02-04T04:56:43;18.56;50.75
71760;HTU21D;59919;48.112;16.280;2023-02-04T04:59:14;18.56;50.88
71760;HTU21D;59919;48.112;16.280;2023-02-04T05:01:45;18.58;50.66
71760;HTU21D;59919;48.112;16.280;2023-02-04T05:04:16;18.57;50.48
71760;HTU21D;59919;48.112;16.280;2023-02-04T05:06:48;18.56;50.77
71760;HTU21D;59919;48.112;16.280;2023-02-04T05:09:19;18.53;50.67
71760;HTU21D;59919;48.112;16.280;2023-02-04T05:11:50;18.55;50.57
71760;HTU21D;59919;48.112;16.280;2023-02-04T05:14:23;18.51;50.92
71760;HTU21D;59919;48.112;16.280;2023-02-04T05:16:57;18.56;50.85
71760;HTU21D;59919;48.112;16.280;2023-02-04T05:19:29;18.55;50.94
71760;HTU21D;59919;48.112;16.280;2023-02-04T05:22:00;18.56;50.80
71760;HTU21D;59919;48.112;16.280;2023-02-04T05:24:34;18.56;50.87
71760;HTU21D;59919;48.112;16.280;2023-02-04T05:27:07;18.55;50.73
71760;HTU21D;59919;48.112;16.280;2023-02-04T05:29:38;18.56;50.75
71760;HTU21D;59919;48.112;16.280;2023-02-04T05:32:09;18.57;50.63
71760;HTU21D;59919;48.112;16.280;2023-02-04T05:34:40;18.55;50.76
71760;HTU21D;59919;48.112;16.280;2023-02-04T05:37:11;18.61;50.79
71760;HTU21D;59919;48.112;16.280;2023-02-04T05:39:47;18.58;50.76
71760;HTU21D;59919;48.112;16.280;2023-02-04T05:42:18;18.63;50.76
71760;HTU21D;59919;48.112;16.280;2023-02-04T05:44:49;18.63;50.53
71760;HTU21D;59919;48.112;16.280;2023-02-04T05:47:20;18.62;50.84
71760;HTU21D;59919;48.112;16.280;2023-02-04T05:49:54;18.62;50.30
71760;HTU21D;59919;48.112;16.280;2023-02-04T05:52:25;18.72;50.53
71760;HTU21D;59919;48.112;16.280;2023-02-04T05:54:56;18.65;50.53
71760;HTU21D;59919;48.112;16.280;2023-02-04T05:57:27;18.74;50.49
71760;HTU21D;59919;48.112;16.280;2023-02-04T06:00:01;18.78;50.22
71760;HTU21D;59919;48.112;16.280;2023-02-04T06:02:35;18.77;50.41
71760;HTU21D;59919;48.112;16.280;2023-02-04T06:05:09;18.73;50.18
71760;HTU21D;59919;48.112;16.280;2023-02-04T06:07:40;18.77;50.52
71760;HTU21D;59919;48.112;16.280;2023-02-04T06:10:13;18.83;50.55
71760;HTU21D;59919;48.112;16.280;2023-02-04T06:12:45;18.89;50.39
71760;HTU21D;59919;48.112;16.280;2023-02-04T06:15:18;18.82;50.38
71760;HTU21D;59919;48.112;16.280;2023-02-04T06:17:50;18.85;50.21
71760;HTU21D;59919;48.112;16.280;2023-02-04T06:20:23;18.83;50.37
71760;HTU21D;59919;48.112;16.280;2023-02-04T06:22:56;18.82;50.27
71760;HTU21D;59919;48.112;16.280;2023-02-04T06:25:30;18.73;46.65
71760;HTU21D;59919;48.112;16.280;2023-02-04T06:28:02;18.54;44.86
71760;HTU21D;59919;48.112;16.280;2023-02-04T06:30:34;18.74;47.28
71760;HTU21D;59919;48.112;16.280;2023-02-04T06:33:05;18.70;47.70
71760;HTU21D;59919;48.112;16.280;2023-02-04T06:35:36;18.68;46.75
71760;HTU21D;59919;48.112;16.280;2023-02-04T06:38:10;18.70;47.25
71760;HTU21D;59919;48.112;16.280;2023-02-04T06:40:41;18.72;46.63
71760;HTU21D;59919;48.112;16.280;2023-02-04T06:43:12;18.69;46.75
71760;HTU21D;59919;48.112;16.280;2023-02-04T06:45:43;18.72;46.83
71760;HTU21D;59919;48.112;16.280;2023-02-04T06:48:14;18.62;46.89
71760;HTU21D;59919;48.112;16.280;2023-02-04T06:50:47;18.59;46.95
71760;HTU21D;59919;48.112;16.280;2023-02-04T06:53:18;18.65;47.33
71760;HTU21D;59919;48.112;16.280;2023-02-04T06:55:52;18.68;47.20
71760;HTU21D;59919;48.112;16.280;2023-02-04T06:58:23;18.71;47.29
71760;HTU21D;59919;48.112;16.280;2023-02-04T07:00:54;18.69;47.63
71760;HTU21D;59919;48.112;16.280;2023-02-04T07:03:31;18.74;47.67
71760;HTU21D;59919;48.112;16.280;2023-02-04T07:06:05;18.74;47.67
71760;HTU21D;59919;48.112;16.280;2023-02-04T07:08:36;18.73;47.86
71760;HTU21D;59919;48.112;16.280;2023-02-04T07:11:10;18.70;47.88
71760;HTU21D;59919;48.112;16.280;2023-02-04T07:13:41;18.70;48.00
71760;HTU21D;59919;48.112;16.280;2023-02-04T07:16:15;18.69;48.02
71760;HTU21D;59919;48.112;16.280;2023-02-04T07:18:48;18.64;48.25
71760;HTU21D;59919;48.112;16.280;2023-02-04T07:21:22;18.67;48.94
71760;HTU21D;59919;48.112;16.280;2023-02-04T07:23:53;18.64;48.57
71760;HTU21D;59919;48.112;16.280;2023-02-04T07:26:27;18.61;48.58
71760;HTU21D;59919;48.112;16.280;2023-02-04T07:28:58;18.64;48.53
71760;HTU21D;59919;48.112;16.280;2023-02-04T07:31:29;18.61;48.83
71760;HTU21D;59919;48.112;16.280;2023-02-04T07:34:05;18.59;48.96
71760;HTU21D;59919;48.112;16.280;2023-02-04T07:36:36;18.61;48.86
71760;HTU21D;59919;48.112;16.280;2023-02-04T07:39:08;18.61;48.89
71760;HTU21D;59919;48.112;16.280;2023-02-04T07:41:39;18.57;49.60
71760;HTU21D;59919;48.112;16.280;2023-02-04T07:44:11;18.56;49.37
71760;HTU21D;59919;48.112;16.280;2023-02-04T07:46:44;18.54;49.63
71760;HTU21D;59919;48.112;16.280;2023-02-04T07:49:15;18.55;49.37
71760;HTU21D;59919;48.112;16.280;2023-02-04T07:51:49;18.53;49.50
71760;HTU21D;59919;48.112;16.280;2023-02-04T07:54:19;18.54;49.65
71760;HTU21D;59919;48.112;16.280;2023-02-04T07:56:50;18.58;49.42
71760;HTU21D;59919;48.112;16.280;2023-02-04T07:59:24;18.61;49.39
71760;HTU21D;59919;48.112;16.280;2023-02-04T08:01:58;18.57;49.65
71760;HTU21D;59919;48.112;16.280;2023-02-04T08:04:33;18.59;49.53
71760;HTU21D;59919;48.112;16.280;2023-02-04T08:07:11;18.57;49.46
71760;HTU21D;59919;48.112;16.280;2023-02-04T08:09:42;18.59;49.72
71760;HTU21D;59919;48.112;16.280;2023-02-04T08:12:13;18.71;49.71
71760;HTU21D;59919;48.112;16.280;2023-02-04T08:14:44;18.66;49.47
71760;HTU21D;59919;48.112;16.280;2023-02-04T08:17:15;18.66;49.88
71760;HTU21D;59919;48.112;16.280;2023-02-04T08:19:49;18.63;49.79
71760;HTU21D;59919;48.112;16.280;2023-02-04T08:22:20;18.67;49.86
71760;HTU21D;59919;48.112;16.280;2023-02-04T08:25:06;18.64;50.18
71760;HTU21D;59919;48.112;16.280;2023-02-04T08:27:41;18.67;49.88
71760;HTU21D;59919;48.112;16.280;2023-02-04T08:30:13;18.64;49.78
71760;HTU21D;59919;48.112;16.280;2023-02-04T08:32:44;18.65;49.98
71760;HTU21D;59919;48.112;16.280;2023-02-04T08:35:17;18.63;50.34
71760;HTU21D;59919;48.112;16.280;2023-02-04T08:37:48;18.70;49.97
71760;HTU21D;59919;48.112;16.280;2023-02-04T08:40:19;18.65;49.63
71760;HTU21D;59919;48.112;16.280;2023-02-04T08:42:53;18.63;49.91
71760;HTU21D;59919;48.112;16.280;2023-02-04T08:45:26;18.62;49.97
71760;HTU21D;59919;48.112;16.280;2023-02-04T08:47:57;18.62;50.32
71760;HTU21D;59919;48.112;16.280;2023-02-04T08:50:28;18.63;50.21
71760;HTU21D;59919;48.112;16.280;2023-02-04T08:53:00;18.64;49.48
71760;HTU21D;59919;48.112;16.280;2023-02-04T08:55:31;18.64;49.79
71760;HTU21D;59919;48.112;16.280;2023-02-04T08:58:02;18.65;50.38
71760;HTU21D;59919;48.112;16.280;2023-02-04T09:00:33;18.65;50.42
71760;HTU21D;59919;48.112;16.280;2023-02-04T09:03:04;18.62;50.11
71760;HTU21D;59919;48.112;16.280;2023-02-04T09:05:38;18.61;50.31
71760;HTU21D;59919;48.112;16.280;2023-02-04T09:08:09;18.61;50.20
71760;HTU21D;59919;48.112;16.280;2023-02-04T09:13:34;18.54;50.52
71760;HTU21D;59919;48.112;16.280;2023-02-04T09:16:05;18.58;50.21
71760;HTU21D;59919;48.112;16.280;2023-02-04T09:18:39;18.56;50.05
71760;HTU21D;59919;48.112;16.280;2023-02-04T09:21:10;18.59;50.37
71760;HTU21D;59919;48.112;16.280;2023-02-04T09:23:41;18.53;50.21
71760;HTU21D;59919;48.112;16.280;2023-02-04T09:26:12;18.55;50.58
71760;HTU21D;59919;48.112;16.280;2023-02-04T09:28:45;18.57;50.72
71760;HTU21D;59919;48.112;16.280;2023-02-04T09:31:18;18.55;50.65
71760;HTU21D;59919;48.112;16.280;2023-02-04T09:33:49;18.58;50.48
71760;HTU21D;59919;48.112;16.280;2023-02-04T09:36:20;18.57;50.85
71760;HTU21D;59919;48.112;16.280;2023-02-04T09:38:54;18.62;50.60
71760;HTU21D;59919;48.112;16.280;2023-02-04T09:41:28;18.63;50.28
71760;HTU21D;59919;48.112;16.280;2023-02-04T09:43:59;18.62;50.27
71760;HTU21D;59919;48.112;16.280;2023-02-04T09:46:31;18.59;50.82
71760;HTU21D;59919;48.112;16.280;2023-02-04T09:49:03;18.57;50.28
71760;HTU21D;59919;48.112;16.280;2023-02-04T09:51:37;18.62;50.74
71760;HTU21D;59919;48.112;16.280;2023-02-04T09:54:16;18.61;50.33
71760;HTU21D;59919;48.112;16.280;2023-02-04T09:56:55;18.61;50.89
71760;HTU21D;59919;48.112;16.280;2023-02-04T09:59:30;18.66;50.33
71760;HTU21D;59919;48.112;16.280;2023-02-04T10:02:02;18.61;50.56
71760;HTU21D;59919;48.112;16.280;2023-02-04T10:04:35;18.61;50.48
71760;HTU21D;59919;48.112;16.280;2023-02-04T10:07:11;18.61;50.50
71760;HTU21D;59919;48.112;16.280;2023-02-04T10:09:42;18.62;50.59
71760;HTU21D;59919;48.112;16.280;2023-02-04T10:12:16;18.61;50.67
71760;HTU21D;59919;48.112;16.280;2023-02-04T10:14:50;18.59;50.49
71760;HTU21D;59919;48.112;16.280;2023-02-04T10:17:23;18.64;50.37
71760;HTU21D;59919;48.112;16.280;2023-02-04T10:19:57;18.66;50.11
71760;HTU21D;59919;48.112;16.280;2023-02-04T10:22:33;18.69;50.36
71760;HTU21D;59919;48.112;16.280;2023-02-04T10:25:18;18.64;50.37
71760;HTU21D;59919;48.112;16.280;2023-02-04T10:27:59;18.66;50.23
71760;HTU21D;59919;48.112;16.280;2023-02-04T10:30:39;18.63;50.47
71760;HTU21D;59919;48.112;16.280;2023-02-04T10:33:21;18.62;50.46
71760;HTU21D;59919;48.112;16.280;2023-02-04T10:35:58;18.59;50.53
71760;HTU21D;59919;48.112;16.280;2023-02-04T10:38:32;18.59;50.09
71760;HTU21D;59919;48.112;16.280;2023-02-04T10:41:04;18.56;50.56
71760;HTU21D;59919;48.112;16.280;2023-02-04T10:43:35;18.57;50.70
71760;HTU21D;59919;48.112;16.280;2023-02-04T10:46:07;18.59;50.56
71760;HTU21D;59919;48.112;16.280;2023-02-04T10:48:41;18.58;50.29
71760;HTU21D;59919;48.112;16.280;2023-02-04T10:51:12;18.57;50.50
71760;HTU21D;59919;48.112;16.280;2023-02-04T10:53:45;18.55;50.50
71760;HTU21D;59919;48.112;16.280;2023-02-04T10:56:35;18.55;50.55
71760;HTU21D;59919;48.112;16.280;2023-02-04T10:59:19;18.56;50.40
71760;HTU21D;59919;48.112;16.280;2023-02-04T11:01:54;18.51;50.76
71760;HTU21D;59919;48.112;16.280;2023-02-04T11:04:30;18.51;50.63
71760;HTU21D;59919;48.112;16.280;2023-02-04T11:07:01;18.51;50.80
71760;HTU21D;59919;48.112;16.280;2023-02-04T11:09:35;18.49;50.66
71760;HTU21D;59919;48.112;16.280;2023-02-04T11:12:21;18.49;50.66
71760;HTU21D;59919;48.112;16.280;2023-02-04T11:14:56;18.50;50.73
71760;HTU21D;59919;48.112;16.280;2023-02-04T11:17:32;18.46;50.92
71760;HTU21D;59919;48.112;16.280;2023-02-04T11:20:15;18.49;50.36
71760;HTU21D;59919;48.112;16.280;2023-02-04T11:22:47;18.49;50.98
71760;HTU21D;59919;48.112;16.280;2023-02-04T11:25:33;18.51;50.43
71760;HTU21D;59919;48.112;16.280;2023-02-04T11:28:23;18.51;50.53
71760;HTU21D;59919;48.112;16.280;2023-02-04T11:30:59;18.48;50.78
71760;HTU21D;59919;48.112;16.280;2023-02-04T11:33:39;18.50;50.89
71760;HTU21D;59919;48.112;16.280;2023-02-04T11:36:13;18.50;50.84
71760;HTU21D;59919;48.112;16.280;2023-02-04T11:38:46;18.51;51.17
71760;HTU21D;59919;48.112;16.280;2023-02-04T11:41:26;18.52;50.87
71760;HTU21D;59919;48.112;16.280;2023-02-04T11:43:59;18.53;51.11
71760;HTU21D;59919;48.112;16.280;2023-02-04T11:46:30;18.54;51.04
71760;HTU21D;59919;48.112;16.280;2023-02-04T11:49:01;18.55;50.91
71760;HTU21D;59919;48.112;16.280;2023-02-04T11:51:36;18.58;50.85
71760;HTU21D;59919;48.112;16.280;2023-02-04T11:54:07;18.57;50.99
71760;HTU21D;59919;48.112;16.280;2023-02-04T11:56:39;18.58;50.97
71760;HTU21D;59919;48.112;16.280;2023-02-04T11:59:11;18.61;50.28
71760;HTU21D;59919;48.112;16.280;2023-02-04T12:01:42;18.59;50.59
71760;HTU21D;59919;48.112;16.280;2023-02-04T12:04:24;18.58;50.82
71760;HTU21D;59919;48.112;16.280;2023-02-04T12:07:02;18.59;50.83
71760;HTU21D;59919;48.112;16.280;2023-02-04T12:09:33;18.56;51.01
71760;HTU21D;59919;48.112;16.280;2023-02-04T12:12:04;18.61;50.39
71760;HTU21D;59919;48.112;16.280;2023-02-04T12:14:40;18.57;50.64
71760;HTU21D;59919;48.112;16.280;2023-02-04T12:17:17;18.57;50.40
71760;HTU21D;59919;48.112;16.280;2023-02-04T12:19:48;18.55;50.82
71760;HTU21D;59919;48.112;16.280;2023-02-04T12:22:20;18.56;50.72
71760;HTU21D;59919;48.112;16.280;2023-02-04T12:24:53;18.57;50.68
71760;HTU21D;59919;48.112;16.280;2023-02-04T12:27:24;18.55;50.78
71760;HTU21D;59919;48.112;16.280;2023-02-04T12:29:57;18.53;50.65
71760;HTU21D;59919;48.112;16.280;2023-02-04T12:32:28;18.54;50.75
71760;HTU21D;59919;48.112;16.280;2023-02-04T12:34:59;18.53;50.76
71760;HTU21D;59919;48.112;16.280;2023-02-04T12:37:31;18.53;50.64
71760;HTU21D;59919;48.112;16.280;2023-02-04T12:40:02;18.51;50.69
71760;HTU21D;59919;48.112;16.280;2023-02-04T12:42:39;18.53;50.15
71760;HTU21D;59919;48.112;16.280;2023-02-04T12:45:16;18.51;50.29
71760;HTU21D;59919;48.112;16.280;2023-02-04T12:47:47;18.51;50.21
71760;HTU21D;59919;48.112;16.280;2023-02-04T12:50:19;18.52;50.60
71760;HTU21D;59919;48.112;16.280;2023-02-04T12:52:56;18.52;50.27
71760;HTU21D;59919;48.112;16.280;2023-02-04T12:55:30;18.54;50.64
71760;HTU21D;59919;48.112;16.280;2023-02-04T12:58:03;18.53;50.56
71760;HTU21D;59919;48.112;16.280;2023-02-04T13:00:37;18.53;50.31
71760;HTU21D;59919;48.112;16.280;2023-02-04T13:03:10;18.53;50.43
71760;HTU21D;59919;48.112;16.280;2023-02-04T13:05:44;18.58;50.02
71760;HTU21D;59919;48.112;16.280;2023-02-04T13:08:15;18.54;50.47
71760;HTU21D;59919;48.112;16.280;2023-02-04T13:10:46;18.55;50.47
71760;HTU21D;59919;48.112;16.280;2023-02-04T13:13:21;18.52;50.51
71760;HTU21D;59919;48.112;16.280;2023-02-04T13:15:52;18.55;50.72
71760;HTU21D;59919;48.112;16.280;2023-02-04T13:18:24;18.56;50.72
71760;HTU21D;59919;48.112;16.280;2023-02-04T13:20:55;18.56;50.65
71760;HTU21D;59919;48.112;16.280;2023-02-04T13:23:26;18.57;50.47
71760;HTU21D;59919;48.112;16.280;2023-02-04T13:25:59;18.58;50.57
71760;HTU21D;59919;48.112;16.280;2023-02-04T13:28:30;18.59;50.49
71760;HTU21D;59919;48.112;16.280;2023-02-04T13:31:02;18.56;50.50
71760;HTU21D;59919;48.112;16.280;2023-02-04T13:33:36;18.54;50.61
71760;HTU21D;59919;48.112;16.280;2023-02-04T13:36:07;18.55;50.24
71760;HTU21D;59919;48.112;16.280;2023-02-04T13:38:38;18.53;50.56
71760;HTU21D;59919;48.112;16.280;2023-02-04T13:41:09;18.57;50.51
71760;HTU21D;59919;48.112;16.280;2023-02-04T13:43:40;18.55;50.12
71760;HTU21D;59919;48.112;16.280;2023-02-04T13:46:11;18.52;50.79
71760;HTU21D;59919;48.112;16.280;2023-02-04T13:48:42;18.54;50.69
71760;HTU21D;59919;48.112;16.280;2023-02-04T13:51:16;18.51;50.84
71760;HTU21D;59919;48.112;16.280;2023-02-04T13:53:47;18.47;50.47
71760;HTU21D;59919;48.112;16.280;2023-02-04T13:56:23;18.49;50.61
71760;HTU21D;59919;48.112;16.280;2023-02-04T13:58:54;18.48;50.37
71760;HTU21D;59919;48.112;16.280;2023-02-04T14:01:26;18.46;50.77
71760;HTU21D;59919;48.112;16.280;2023-02-04T14:03:58;18.46;50.58
71760;HTU21D;59919;48.112;16.280;2023-02-04T14:06:29;18.48;50.72
71760;HTU21D;59919;48.112;16.280;2023-02-04T14:09:04;18.46;50.79
71760;HTU21D;59919;48.112;16.280;2023-02-04T14:11:35;18.44;50.52
71760;HTU21D;59919;48.112;16.280;2023-02-04T14:14:08;18.44;50.81
71760;HTU21D;59919;48.112;16.280;2023-02-04T14:16:39;18.41;50.90
71760;HTU21D;59919;48.112;16.280;2023-02-04T14:19:10;18.43;50.91
71760;HTU21D;59919;48.112;16.280;2023-02-04T14:21:42;18.43;50.91
71760;HTU21D;59919;48.112;16.280;2023-02-04T14:24:13;18.46;51.27
71760;HTU21D;59919;48.112;16.280;2023-02-04T14:26:44;18.47;50.88
71760;HTU21D;59919;48.112;16.280;2023-02-04T14:29:16;18.51;50.99
71760;HTU21D;59919;48.112;16.280;2023-02-04T14:31:49;18.51;50.79
71760;HTU21D;59919;48.112;16.280;2023-02-04T14:34:21;18.51;50.68
71760;HTU21D;59919;48.112;16.280;2023-02-04T14:36:57;18.50;50.72
71760;HTU21D;59919;48.112;16.280;2023-02-04T14:39:31;18.53;50.39
71760;HTU21D;59919;48.112;16.280;2023-02-04T14:42:03;18.52;50.66
71760;HTU21D;59919;48.112;16.280;2023-02-04T14:44:36;18.56;50.57
71760;HTU21D;59919;48.112;16.280;2023-02-04T14:47:07;18.54;50.86
71760;HTU21D;59919;48.112;16.280;2023-02-04T14:49:38;18.54;50.94
71760;HTU21D;59919;48.112;16.280;2023-02-04T14:52:12;18.56;50.87
71760;HTU21D;59919;48.112;16.280;2023-02-04T14:54:46;18.54;50.73
71760;HTU21D;59919;48.112;16.280;2023-02-04T14:57:18;18.54;50.43
71760;HTU21D;59919;48.112;16.280;2023-02-04T14:59:51;18.51;50.57
71760;HTU21D;59919;48.112;16.280;2023-02-04T15:02:30;18.54;50.88
71760;HTU21D;59919;48.112;16.280;2023-02-04T15:05:04;18.53;50.71
71760;HTU21D;59919;48.112;16.280;2023-02-04T15:07:40;18.49;50.61
71760;HTU21D;59919;48.112;16.280;2023-02-04T15:10:13;18.46;50.56
71760;HTU21D;59919;48.112;16.280;2023-02-04T15:12:50;18.47;50.54
71760;HTU21D;59919;48.112;16.280;2023-02-04T15:15:21;18.44;50.87
71760;HTU21D;59919;48.112;16.280;2023-02-04T15:17:52;18.46;50.84
71760;HTU21D;59919;48.112;16.280;2023-02-04T15:20:23;18.46;51.17
71760;HTU21D;59919;48.112;16.280;2023-02-04T15:22:54;18.46;51.08
71760;HTU21D;59919;48.112;16.280;2023-02-04T15:25:28;18.50;51.05
71760;HTU21D;59919;48.112;16.280;2023-02-04T15:27:59;18.50;50.76
71760;HTU21D;59919;48.112;16.280;2023-02-04T15:30:30;18.49;51.07
71760;HTU21D;59919;48.112;16.280;2023-02-04T15:33:06;18.52;50.80
71760;HTU21D;59919;48.112;16.280;2023-02-04T15:35:37;18.51;50.70
71760;HTU21D;59919;48.112;16.280;2023-02-04T15:38:11;18.52;50.76
71760;HTU21D;59919;48.112;16.280;2023-02-04T15:40:45;18.50;50.73
71760;HTU21D;59919;48.112;16.280;2023-02-04T15:43:16;18.51;50.72